sensor_id;sensor_type;location;lat;lon;timestamp;P1;durP1;ratioP1;P2;durP2;ratioP2
12141;SDS011;6134;59.284;18.022;2023-02-08T00:01:32;7.05;;;3.42;;
12141;SDS011;6134;59.284;18.022;2023-02-08T00:04:00;11.63;;;4.03;;
12141;SDS011;6134;59.284;18.022;2023-02-08T00:06:29;11.00;;;3.50;;
12141;SDS011;6134;59.284;18.022;2023-02-08T00:08:58;8.60;;;3.08;;
12141;SDS011;6134;59.284;18.022;2023-02-08T00:11:28;13.18;;;3.33;;
12141;SDS011;6134;59.284;18.022;2023-02-08T00:13:57;10.30;;;3.10;;
12141;SDS011;6134;59.284;18.022;2023-02-08T00:16:25;12.80;;;3.88;;
12141;SDS011;6134;59.284;18.022;2023-02-08T00:18:55;13.40;;;3.38;;
12141;SDS011;6134;59.284;18.022;2023-02-08T00:21:24;13.68;;;3.28;;
12141;SDS011;6134;59.284;18.022;2023-02-08T00:23:53;15.43;;;3.35;;
12141;SDS011;6134;59.284;18.022;2023-02-08T00:26:24;16.00;;;3.75;;
12141;SDS011;6134;59.284;18.022;2023-02-08T00:28:53;13.75;;;3.35;;
12141;SDS011;6134;59.284;18.022;2023-02-08T00:31:22;15.18;;;3.63;;
12141;SDS011;6134;59.284;18.022;2023-02-08T00:33:51;10.48;;;3.58;;
12141;SDS011;6134;59.284;18.022;2023-02-08T00:36:20;10.50;;;3.40;;
12141;SDS011;6134;59.284;18.022;2023-02-08T00:38:49;9.20;;;2.97;;
12141;SDS011;6134;59.284;18.022;2023-02-08T00:41:20;14.45;;;3.58;;
12141;SDS011;6134;59.284;18.022;2023-02-08T00:43:48;11.10;;;3.47;;
12141;SDS011;6134;59.284;18.022;2023-02-08T00:46:17;9.93;;;3.58;;
12141;SDS011;6134;59.284;18.022;2023-02-08T00:48:48;10.00;;;2.53;;
12141;SDS011;6134;59.284;18.022;2023-02-08T00:51:16;15.00;;;3.38;;
12141;SDS011;6134;59.284;18.022;2023-02-08T00:53:50;7.47;;;2.72;;
12141;SDS011;6134;59.284;18.022;2023-02-08T00:56:19;12.95;;;3.38;;
12141;SDS011;6134;59.284;18.022;2023-02-08T00:58:50;11.65;;;3.55;;
12141;SDS011;6134;59.284;18.022;2023-02-08T01:01:19;13.98;;;3.17;;
12141;SDS011;6134;59.284;18.022;2023-02-08T01:03:48;11.93;;;2.42;;
12141;SDS011;6134;59.284;18.022;2023-02-08T01:06:17;16.23;;;4.38;;
12141;SDS011;6134;59.284;18.022;2023-02-08T01:08:46;11.55;;;3.22;;
12141;SDS011;6134;59.284;18.022;2023-02-08T01:11:17;9.93;;;2.97;;
12141;SDS011;6134;59.284;18.022;2023-02-08T01:13:48;9.10;;;3.08;;
12141;SDS011;6134;59.284;18.022;2023-02-08T01:16:24;10.75;;;3.30;;
12141;SDS011;6134;59.284;18.022;2023-02-08T01:18:54;10.68;;;3.60;;
12141;SDS011;6134;59.284;18.022;2023-02-08T01:21:26;15.23;;;3.58;;
12141;SDS011;6134;59.284;18.022;2023-02-08T01:23:55;14.50;;;3.20;;
12141;SDS011;6134;59.284;18.022;2023-02-08T01:26:25;17.23;;;4.35;;
12141;SDS011;6134;59.284;18.022;2023-02-08T01:28:54;11.25;;;3.85;;
12141;SDS011;6134;59.284;18.022;2023-02-08T01:31:26;13.52;;;3.83;;
12141;SDS011;6134;59.284;18.022;2023-02-08T01:33:58;15.98;;;4.25;;
12141;SDS011;6134;59.284;18.022;2023-02-08T01:36:28;11.63;;;4.05;;
12141;SDS011;6134;59.284;18.022;2023-02-08T01:38:57;23.85;;;4.30;;
12141;SDS011;6134;59.284;18.022;2023-02-08T01:41:28;15.32;;;5.32;;
12141;SDS011;6134;59.284;18.022;2023-02-08T01:43:59;22.55;;;5.18;;
12141;SDS011;6134;59.284;18.022;2023-02-08T01:46:30;19.25;;;4.72;;
12141;SDS011;6134;59.284;18.022;2023-02-08T01:49:01;17.30;;;4.90;;
12141;SDS011;6134;59.284;18.022;2023-02-08T01:51:31;25.15;;;5.47;;
12141;SDS011;6134;59.284;18.022;2023-02-08T01:54:03;14.63;;;4.80;;
12141;SDS011;6134;59.284;18.022;2023-02-08T01:56:36;15.20;;;5.18;;
12141;SDS011;6134;59.284;18.022;2023-02-08T01:59:07;17.95;;;4.60;;
12141;SDS011;6134;59.284;18.022;2023-02-08T02:01:38;18.48;;;5.43;;
12141;SDS011;6134;59.284;18.022;2023-02-08T02:04:07;16.20;;;5.63;;
12141;SDS011;6134;59.284;18.022;2023-02-08T02:06:40;23.85;;;5.60;;
12141;SDS011;6134;59.284;18.022;2023-02-08T02:09:13;28.83;;;6.50;;
12141;SDS011;6134;59.284;18.022;2023-02-08T02:11:45;16.73;;;4.88;;
12141;SDS011;6134;59.284;18.022;2023-02-08T02:14:17;12.55;;;5.00;;
12141;SDS011;6134;59.284;18.022;2023-02-08T02:16:46;16.95;;;5.63;;
12141;SDS011;6134;59.284;18.022;2023-02-08T02:19:17;16.65;;;4.97;;
12141;SDS011;6134;59.284;18.022;2023-02-08T02:21:53;18.83;;;5.68;;
12141;SDS011;6134;59.284;18.022;2023-02-08T02:24:36;13.75;;;4.85;;
12141;SDS011;6134;59.284;18.022;2023-02-08T02:27:21;15.25;;;4.95;;
12141;SDS011;6134;59.284;18.022;2023-02-08T02:30:19;14.43;;;4.93;;
12141;SDS011;6134;59.284;18.022;2023-02-08T02:32:56;18.75;;;5.32;;
12141;SDS011;6134;59.284;18.022;2023-02-08T02:35:29;15.10;;;4.78;;
12141;SDS011;6134;59.284;18.022;2023-02-08T02:38:02;12.85;;;4.45;;
12141;SDS011;6134;59.284;18.022;2023-02-08T02:40:35;14.98;;;4.85;;
12141;SDS011;6134;59.284;18.022;2023-02-08T02:43:07;17.45;;;5.63;;
12141;SDS011;6134;59.284;18.022;2023-02-08T02:45:56;11.70;;;4.63;;
12141;SDS011;6134;59.284;18.022;2023-02-08T02:48:29;17.25;;;4.97;;
12141;SDS011;6134;59.284;18.022;2023-02-08T02:51:01;14.48;;;5.03;;
12141;SDS011;6134;59.284;18.022;2023-02-08T02:53:31;17.60;;;4.95;;
12141;SDS011;6134;59.284;18.022;2023-02-08T02:56:02;16.58;;;5.20;;
12141;SDS011;6134;59.284;18.022;2023-02-08T02:58:32;17.42;;;5.47;;
12141;SDS011;6134;59.284;18.022;2023-02-08T03:01:02;17.83;;;5.30;;
12141;SDS011;6134;59.284;18.022;2023-02-08T03:03:33;16.77;;;5.28;;
12141;SDS011;6134;59.284;18.022;2023-02-08T03:06:02;12.38;;;5.13;;
12141;SDS011;6134;59.284;18.022;2023-02-08T03:11:19;15.82;;;5.20;;
12141;SDS011;6134;59.284;18.022;2023-02-08T03:13:55;12.05;;;4.43;;
12141;SDS011;6134;59.284;18.022;2023-02-08T03:16:31;14.40;;;5.68;;
12141;SDS011;6134;59.284;18.022;2023-02-08T03:19:04;15.25;;;5.43;;
12141;SDS011;6134;59.284;18.022;2023-02-08T03:21:40;16.23;;;5.55;;
12141;SDS011;6134;59.284;18.022;2023-02-08T03:24:17;17.40;;;4.82;;
12141;SDS011;6134;59.284;18.022;2023-02-08T03:26:51;14.70;;;5.35;;
12141;SDS011;6134;59.284;18.022;2023-02-08T03:29:23;18.75;;;6.15;;
12141;SDS011;6134;59.284;18.022;2023-02-08T03:31:56;22.40;;;5.50;;
12141;SDS011;6134;59.284;18.022;2023-02-08T03:34:30;22.73;;;5.65;;
12141;SDS011;6134;59.284;18.022;2023-02-08T03:37:02;13.35;;;5.60;;
12141;SDS011;6134;59.284;18.022;2023-02-08T03:39:31;13.23;;;5.10;;
12141;SDS011;6134;59.284;18.022;2023-02-08T03:42:00;15.77;;;5.55;;
12141;SDS011;6134;59.284;18.022;2023-02-08T03:44:32;17.63;;;5.20;;
12141;SDS011;6134;59.284;18.022;2023-02-08T03:47:03;10.95;;;5.85;;
12141;SDS011;6134;59.284;18.022;2023-02-08T03:49:43;17.35;;;5.30;;
12141;SDS011;6134;59.284;18.022;2023-02-08T03:52:12;13.95;;;5.13;;
12141;SDS011;6134;59.284;18.022;2023-02-08T03:54:44;11.27;;;5.38;;
12141;SDS011;6134;59.284;18.022;2023-02-08T03:57:16;17.42;;;5.30;;
12141;SDS011;6134;59.284;18.022;2023-02-08T03:59:47;12.85;;;5.45;;
12141;SDS011;6134;59.284;18.022;2023-02-08T04:02:19;13.60;;;6.10;;
12141;SDS011;6134;59.284;18.022;2023-02-08T04:04:50;13.48;;;4.95;;
12141;SDS011;6134;59.284;18.022;2023-02-08T04:07:18;18.67;;;5.22;;
12141;SDS011;6134;59.284;18.022;2023-02-08T04:09:47;12.75;;;4.95;;
12141;SDS011;6134;59.284;18.022;2023-02-08T04:12:16;16.42;;;6.30;;
12141;SDS011;6134;59.284;18.022;2023-02-08T04:14:45;10.65;;;5.07;;
12141;SDS011;6134;59.284;18.022;2023-02-08T04:17:14;11.38;;;4.90;;
12141;SDS011;6134;59.284;18.022;2023-02-08T04:19:42;14.48;;;5.53;;
12141;SDS011;6134;59.284;18.022;2023-02-08T04:22:12;15.10;;;5.57;;
12141;SDS011;6134;59.284;18.022;2023-02-08T04:24:43;18.33;;;5.35;;
12141;SDS011;6134;59.284;18.022;2023-02-08T04:27:12;10.18;;;5.00;;
12141;SDS011;6134;59.284;18.022;2023-02-08T04:29:46;11.23;;;5.53;;
12141;SDS011;6134;59.284;18.022;2023-02-08T04:32:16;11.68;;;4.70;;
12141;SDS011;6134;59.284;18.022;2023-02-08T04:34:45;13.50;;;5.80;;
12141;SDS011;6134;59.284;18.022;2023-02-08T04:37:20;7.95;;;4.53;;
12141;SDS011;6134;59.284;18.022;2023-02-08T04:39:49;13.40;;;5.47;;
12141;SDS011;6134;59.284;18.022;2023-02-08T04:42:20;10.18;;;4.78;;
12141;SDS011;6134;59.284;18.022;2023-02-08T04:44:48;10.73;;;5.05;;
12141;SDS011;6134;59.284;18.022;2023-02-08T04:47:17;14.80;;;5.75;;
12141;SDS011;6134;59.284;18.022;2023-02-08T04:49:46;14.55;;;5.72;;
12141;SDS011;6134;59.284;18.022;2023-02-08T04:52:15;14.15;;;4.93;;
12141;SDS011;6134;59.284;18.022;2023-02-08T04:54:45;13.25;;;4.78;;
12141;SDS011;6134;59.284;18.022;2023-02-08T04:57:13;12.48;;;5.60;;
12141;SDS011;6134;59.284;18.022;2023-02-08T04:59:42;15.50;;;5.68;;
12141;SDS011;6134;59.284;18.022;2023-02-08T05:02:11;13.88;;;6.03;;
12141;SDS011;6134;59.284;18.022;2023-02-08T05:04:42;13.40;;;5.25;;
12141;SDS011;6134;59.284;18.022;2023-02-08T05:07:11;12.13;;;5.32;;
12141;SDS011;6134;59.284;18.022;2023-02-08T05:09:39;15.00;;;5.35;;
12141;SDS011;6134;59.284;18.022;2023-02-08T05:12:09;13.32;;;6.07;;
12141;SDS011;6134;59.284;18.022;2023-02-08T05:14:38;16.38;;;6.15;;
12141;SDS011;6134;59.284;18.022;2023-02-08T05:17:07;14.52;;;5.45;;
12141;SDS011;6134;59.284;18.022;2023-02-08T05:19:35;13.48;;;5.10;;
12141;SDS011;6134;59.284;18.022;2023-02-08T05:22:04;14.07;;;5.97;;
12141;SDS011;6134;59.284;18.022;2023-02-08T05:24:33;14.55;;;6.93;;
12141;SDS011;6134;59.284;18.022;2023-02-08T05:27:02;12.63;;;6.40;;
12141;SDS011;6134;59.284;18.022;2023-02-08T05:29:32;12.48;;;5.80;;
12141;SDS011;6134;59.284;18.022;2023-02-08T05:32:01;20.75;;;7.03;;
12141;SDS011;6134;59.284;18.022;2023-02-08T05:34:31;14.98;;;6.38;;
12141;SDS011;6134;59.284;18.022;2023-02-08T05:36:59;15.32;;;6.75;;
12141;SDS011;6134;59.284;18.022;2023-02-08T05:39:28;17.58;;;7.20;;
12141;SDS011;6134;59.284;18.022;2023-02-08T05:41:57;19.23;;;6.82;;
12141;SDS011;6134;59.284;18.022;2023-02-08T05:44:25;19.38;;;6.05;;
12141;SDS011;6134;59.284;18.022;2023-02-08T05:46:55;17.10;;;7.05;;
12141;SDS011;6134;59.284;18.022;2023-02-08T05:49:26;15.93;;;7.38;;
12141;SDS011;6134;59.284;18.022;2023-02-08T05:51:54;14.15;;;5.97;;
12141;SDS011;6134;59.284;18.022;2023-02-08T05:54:23;16.58;;;7.40;;
12141;SDS011;6134;59.284;18.022;2023-02-08T05:56:52;13.20;;;6.72;;
12141;SDS011;6134;59.284;18.022;2023-02-08T05:59:20;14.30;;;6.50;;
12141;SDS011;6134;59.284;18.022;2023-02-08T06:01:52;16.05;;;7.22;;
12141;SDS011;6134;59.284;18.022;2023-02-08T06:04:22;18.15;;;7.07;;
12141;SDS011;6134;59.284;18.022;2023-02-08T06:06:51;18.25;;;7.25;;
12141;SDS011;6134;59.284;18.022;2023-02-08T06:09:22;12.82;;;6.70;;
12141;SDS011;6134;59.284;18.022;2023-02-08T06:11:51;15.30;;;7.60;;
12141;SDS011;6134;59.284;18.022;2023-02-08T06:14:23;17.50;;;6.88;;
12141;SDS011;6134;59.284;18.022;2023-02-08T06:16:51;12.48;;;7.22;;
12141;SDS011;6134;59.284;18.022;2023-02-08T06:19:21;19.17;;;7.47;;
12141;SDS011;6134;59.284;18.022;2023-02-08T06:21:50;13.77;;;7.10;;
12141;SDS011;6134;59.284;18.022;2023-02-08T06:24:22;17.42;;;7.90;;
12141;SDS011;6134;59.284;18.022;2023-02-08T06:26:50;14.48;;;6.82;;
12141;SDS011;6134;59.284;18.022;2023-02-08T06:29:19;15.15;;;7.20;;
12141;SDS011;6134;59.284;18.022;2023-02-08T06:31:51;17.10;;;7.47;;
12141;SDS011;6134;59.284;18.022;2023-02-08T06:34:23;20.17;;;7.93;;
12141;SDS011;6134;59.284;18.022;2023-02-08T06:36:52;12.82;;;7.55;;
12141;SDS011;6134;59.284;18.022;2023-02-08T06:39:22;14.88;;;8.18;;
12141;SDS011;6134;59.284;18.022;2023-02-08T06:41:51;16.45;;;8.00;;
12141;SDS011;6134;59.284;18.022;2023-02-08T06:44:20;19.92;;;8.25;;
12141;SDS011;6134;59.284;18.022;2023-02-08T06:46:49;15.90;;;7.90;;
12141;SDS011;6134;59.284;18.022;2023-02-08T06:49:20;17.85;;;7.63;;
12141;SDS011;6134;59.284;18.022;2023-02-08T06:51:50;18.38;;;8.00;;
12141;SDS011;6134;59.284;18.022;2023-02-08T06:54:19;16.38;;;7.20;;
12141;SDS011;6134;59.284;18.022;2023-02-08T06:56:51;11.65;;;7.38;;
12141;SDS011;6134;59.284;18.022;2023-02-08T06:59:20;14.18;;;7.80;;
12141;SDS011;6134;59.284;18.022;2023-02-08T07:01:48;17.63;;;7.72;;
12141;SDS011;6134;59.284;18.022;2023-02-08T07:04:17;17.13;;;7.22;;
12141;SDS011;6134;59.284;18.022;2023-02-08T07:06:48;17.88;;;7.43;;
12141;SDS011;6134;59.284;18.022;2023-02-08T07:09:18;16.85;;;7.80;;
12141;SDS011;6134;59.284;18.022;2023-02-08T07:11:47;17.88;;;8.13;;
12141;SDS011;6134;59.284;18.022;2023-02-08T07:14:15;14.45;;;7.22;;
12141;SDS011;6134;59.284;18.022;2023-02-08T07:16:44;14.13;;;7.32;;
12141;SDS011;6134;59.284;18.022;2023-02-08T07:19:13;17.00;;;8.10;;
12141;SDS011;6134;59.284;18.022;2023-02-08T07:21:41;16.80;;;7.05;;
12141;SDS011;6134;59.284;18.022;2023-02-08T07:24:10;17.58;;;7.90;;
12141;SDS011;6134;59.284;18.022;2023-02-08T07:26:41;19.15;;;8.18;;
12141;SDS011;6134;59.284;18.022;2023-02-08T07:29:09;12.32;;;7.15;;
12141;SDS011;6134;59.284;18.022;2023-02-08T07:31:38;18.40;;;7.55;;
12141;SDS011;6134;59.284;18.022;2023-02-08T07:34:07;17.60;;;7.30;;
12141;SDS011;6134;59.284;18.022;2023-02-08T07:36:36;16.17;;;7.03;;
12141;SDS011;6134;59.284;18.022;2023-02-08T07:39:07;14.85;;;6.80;;
12141;SDS011;6134;59.284;18.022;2023-02-08T07:41:35;16.10;;;7.28;;
12141;SDS011;6134;59.284;18.022;2023-02-08T07:44:05;15.32;;;6.95;;
12141;SDS011;6134;59.284;18.022;2023-02-08T07:46:34;12.73;;;6.40;;
12141;SDS011;6134;59.284;18.022;2023-02-08T07:49:03;16.30;;;7.22;;
12141;SDS011;6134;59.284;18.022;2023-02-08T07:51:33;17.10;;;7.18;;
12141;SDS011;6134;59.284;18.022;2023-02-08T07:54:04;13.70;;;6.15;;
12141;SDS011;6134;59.284;18.022;2023-02-08T07:56:33;16.90;;;6.32;;
12141;SDS011;6134;59.284;18.022;2023-02-08T07:59:02;15.85;;;6.80;;
12141;SDS011;6134;59.284;18.022;2023-02-08T08:01:35;15.30;;;6.63;;
12141;SDS011;6134;59.284;18.022;2023-02-08T08:04:04;12.55;;;6.13;;
12141;SDS011;6134;59.284;18.022;2023-02-08T08:06:33;18.65;;;5.82;;
12141;SDS011;6134;59.284;18.022;2023-02-08T08:09:02;15.73;;;6.20;;
12141;SDS011;6134;59.284;18.022;2023-02-08T08:11:31;14.20;;;6.00;;
12141;SDS011;6134;59.284;18.022;2023-02-08T08:14:00;13.25;;;5.80;;
12141;SDS011;6134;59.284;18.022;2023-02-08T08:16:29;14.80;;;5.85;;
12141;SDS011;6134;59.284;18.022;2023-02-08T08:18:59;14.43;;;6.32;;
12141;SDS011;6134;59.284;18.022;2023-02-08T08:21:30;8.52;;;6.00;;
12141;SDS011;6134;59.284;18.022;2023-02-08T08:23:58;13.95;;;5.20;;
12141;SDS011;6134;59.284;18.022;2023-02-08T08:26:27;16.38;;;6.35;;
12141;SDS011;6134;59.284;18.022;2023-02-08T08:28:56;15.02;;;5.55;;
12141;SDS011;6134;59.284;18.022;2023-02-08T08:31:25;8.60;;;4.93;;
12141;SDS011;6134;59.284;18.022;2023-02-08T08:33:54;12.68;;;5.40;;
12141;SDS011;6134;59.284;18.022;2023-02-08T08:36:24;12.07;;;5.75;;
12141;SDS011;6134;59.284;18.022;2023-02-08T08:38:53;13.07;;;6.13;;
12141;SDS011;6134;59.284;18.022;2023-02-08T08:41:21;10.68;;;5.35;;
12141;SDS011;6134;59.284;18.022;2023-02-08T08:43:52;9.43;;;5.03;;
12141;SDS011;6134;59.284;18.022;2023-02-08T08:46:21;10.57;;;4.50;;
12141;SDS011;6134;59.284;18.022;2023-02-08T08:48:51;9.77;;;4.63;;
12141;SDS011;6134;59.284;18.022;2023-02-08T08:51:19;11.20;;;5.25;;
12141;SDS011;6134;59.284;18.022;2023-02-08T08:53:49;12.73;;;5.13;;
12141;SDS011;6134;59.284;18.022;2023-02-08T08:56:20;12.60;;;4.97;;
12141;SDS011;6134;59.284;18.022;2023-02-08T08:58:51;11.20;;;5.07;;
12141;SDS011;6134;59.284;18.022;2023-02-08T09:01:19;13.75;;;5.38;;
12141;SDS011;6134;59.284;18.022;2023-02-08T09:03:48;14.20;;;5.18;;
12141;SDS011;6134;59.284;18.022;2023-02-08T09:06:20;13.23;;;5.28;;
12141;SDS011;6134;59.284;18.022;2023-02-08T09:08:50;11.05;;;4.72;;
12141;SDS011;6134;59.284;18.022;2023-02-08T09:11:18;11.43;;;5.32;;
12141;SDS011;6134;59.284;18.022;2023-02-08T09:13:47;9.05;;;4.50;;
12141;SDS011;6134;59.284;18.022;2023-02-08T09:16:21;10.80;;;4.75;;
12141;SDS011;6134;59.284;18.022;2023-02-08T09:18:50;10.45;;;4.43;;
12141;SDS011;6134;59.284;18.022;2023-02-08T09:21:20;11.82;;;5.40;;
12141;SDS011;6134;59.284;18.022;2023-02-08T09:23:51;15.02;;;4.93;;
12141;SDS011;6134;59.284;18.022;2023-02-08T09:26:21;13.73;;;5.28;;
12141;SDS011;6134;59.284;18.022;2023-02-08T09:28:50;14.95;;;4.82;;
12141;SDS011;6134;59.284;18.022;2023-02-08T09:31:20;14.70;;;5.07;;
12141;SDS011;6134;59.284;18.022;2023-02-08T09:33:50;13.95;;;5.18;;
12141;SDS011;6134;59.284;18.022;2023-02-08T09:36:19;10.30;;;4.72;;
12141;SDS011;6134;59.284;18.022;2023-02-08T09:38:54;13.55;;;4.82;;
12141;SDS011;6134;59.284;18.022;2023-02-08T09:41:30;10.70;;;5.28;;
12141;SDS011;6134;59.284;18.022;2023-02-08T09:44:07;11.85;;;5.13;;
12141;SDS011;6134;59.284;18.022;2023-02-08T09:46:38;11.18;;;5.05;;
12141;SDS011;6134;59.284;18.022;2023-02-08T09:49:08;11.60;;;4.53;;
12141;SDS011;6134;59.284;18.022;2023-02-08T09:51:39;14.82;;;4.45;;
12141;SDS011;6134;59.284;18.022;2023-02-08T09:54:13;10.35;;;4.68;;
12141;SDS011;6134;59.284;18.022;2023-02-08T09:56:43;11.65;;;4.63;;
12141;SDS011;6134;59.284;18.022;2023-02-08T09:59:14;13.60;;;4.45;;
12141;SDS011;6134;59.284;18.022;2023-02-08T10:01:44;7.20;;;3.83;;
12141;SDS011;6134;59.284;18.022;2023-02-08T10:04:14;11.48;;;5.07;;
12141;SDS011;6134;59.284;18.022;2023-02-08T10:06:46;9.20;;;4.63;;
12141;SDS011;6134;59.284;18.022;2023-02-08T10:09:17;16.30;;;5.18;;
12141;SDS011;6134;59.284;18.022;2023-02-08T10:11:49;7.63;;;4.30;;
12141;SDS011;6134;59.284;18.022;2023-02-08T10:14:34;7.30;;;3.63;;
12141;SDS011;6134;59.284;18.022;2023-02-08T10:17:08;9.40;;;3.72;;
12141;SDS011;6134;59.284;18.022;2023-02-08T10:19:47;13.55;;;4.28;;
12141;SDS011;6134;59.284;18.022;2023-02-08T10:22:23;8.82;;;4.55;;
12141;SDS011;6134;59.284;18.022;2023-02-08T10:27:47;9.75;;;3.75;;
12141;SDS011;6134;59.284;18.022;2023-02-08T10:30:18;11.10;;;3.90;;
12141;SDS011;6134;59.284;18.022;2023-02-08T10:32:54;9.80;;;3.63;;
12141;SDS011;6134;59.284;18.022;2023-02-08T10:35:27;10.70;;;4.15;;
12141;SDS011;6134;59.284;18.022;2023-02-08T10:37:57;12.02;;;3.45;;
12141;SDS011;6134;59.284;18.022;2023-02-08T10:40:30;8.18;;;3.55;;
12141;SDS011;6134;59.284;18.022;2023-02-08T10:43:04;9.65;;;3.75;;
12141;SDS011;6134;59.284;18.022;2023-02-08T10:45:40;8.48;;;3.55;;
12141;SDS011;6134;59.284;18.022;2023-02-08T10:48:11;8.55;;;3.38;;
12141;SDS011;6134;59.284;18.022;2023-02-08T10:50:41;8.60;;;3.85;;
12141;SDS011;6134;59.284;18.022;2023-02-08T10:53:13;14.43;;;5.13;;
12141;SDS011;6134;59.284;18.022;2023-02-08T10:55:44;7.88;;;3.22;;
12141;SDS011;6134;59.284;18.022;2023-02-08T10:58:15;6.60;;;3.30;;
12141;SDS011;6134;59.284;18.022;2023-02-08T11:00:45;6.63;;;3.22;;
12141;SDS011;6134;59.284;18.022;2023-02-08T11:03:16;7.28;;;3.53;;
12141;SDS011;6134;59.284;18.022;2023-02-08T11:05:45;8.98;;;3.50;;
12141;SDS011;6134;59.284;18.022;2023-02-08T11:08:14;11.18;;;4.28;;
12141;SDS011;6134;59.284;18.022;2023-02-08T11:10:45;7.30;;;4.47;;
12141;SDS011;6134;59.284;18.022;2023-02-08T11:13:25;10.77;;;3.50;;
12141;SDS011;6134;59.284;18.022;2023-02-08T11:15:55;9.57;;;3.83;;
12141;SDS011;6134;59.284;18.022;2023-02-08T11:18:24;11.70;;;3.92;;
12141;SDS011;6134;59.284;18.022;2023-02-08T11:20:54;11.13;;;4.85;;
12141;SDS011;6134;59.284;18.022;2023-02-08T11:23:27;11.73;;;3.83;;
12141;SDS011;6134;59.284;18.022;2023-02-08T11:26:11;7.65;;;3.28;;
12141;SDS011;6134;59.284;18.022;2023-02-08T11:28:43;5.57;;;3.75;;
12141;SDS011;6134;59.284;18.022;2023-02-08T11:31:15;8.95;;;3.30;;
12141;SDS011;6134;59.284;18.022;2023-02-08T11:33:56;7.70;;;3.88;;
12141;SDS011;6134;59.284;18.022;2023-02-08T11:36:25;9.15;;;4.10;;
12141;SDS011;6134;59.284;18.022;2023-02-08T11:38:59;8.38;;;4.45;;
12141;SDS011;6134;59.284;18.022;2023-02-08T11:41:28;10.35;;;4.05;;
12141;SDS011;6134;59.284;18.022;2023-02-08T11:44:00;9.50;;;3.58;;
12141;SDS011;6134;59.284;18.022;2023-02-08T11:46:37;10.90;;;3.55;;
12141;SDS011;6134;59.284;18.022;2023-02-08T11:49:12;11.45;;;3.92;;
12141;SDS011;6134;59.284;18.022;2023-02-08T11:51:45;10.18;;;3.75;;
12141;SDS011;6134;59.284;18.022;2023-02-08T11:54:30;10.60;;;4.03;;
12141;SDS011;6134;59.284;18.022;2023-02-08T11:57:00;8.75;;;3.92;;
12141;SDS011;6134;59.284;18.022;2023-02-08T11:59:30;7.25;;;3.30;;
12141;SDS011;6134;59.284;18.022;2023-02-08T12:01:59;7.95;;;4.32;;
12141;SDS011;6134;59.284;18.022;2023-02-08T12:04:45;7.70;;;3.13;;
12141;SDS011;6134;59.284;18.022;2023-02-08T12:07:16;11.00;;;4.35;;
12141;SDS011;6134;59.284;18.022;2023-02-08T12:12:44;9.20;;;3.97;;
12141;SDS011;6134;59.284;18.022;2023-02-08T12:15:20;11.43;;;6.40;;
12141;SDS011;6134;59.284;18.022;2023-02-08T12:20:35;11.82;;;4.20;;
12141;SDS011;6134;59.284;18.022;2023-02-08T12:26:00;6.22;;;3.88;;
12141;SDS011;6134;59.284;18.022;2023-02-08T12:28:35;6.60;;;3.65;;
12141;SDS011;6134;59.284;18.022;2023-02-08T12:31:10;6.32;;;3.40;;
12141;SDS011;6134;59.284;18.022;2023-02-08T12:33:44;7.78;;;3.63;;
12141;SDS011;6134;59.284;18.022;2023-02-08T12:36:19;7.63;;;3.38;;
12141;SDS011;6134;59.284;18.022;2023-02-08T12:39:11;6.60;;;3.45;;
12141;SDS011;6134;59.284;18.022;2023-02-08T12:42:13;8.00;;;3.10;;
12141;SDS011;6134;59.284;18.022;2023-02-08T12:44:49;10.93;;;3.22;;
12141;SDS011;6134;59.284;18.022;2023-02-08T12:47:27;9.00;;;3.42;;
12141;SDS011;6134;59.284;18.022;2023-02-08T12:50:00;6.00;;;2.95;;
12141;SDS011;6134;59.284;18.022;2023-02-08T12:52:32;9.95;;;3.42;;
12141;SDS011;6134;59.284;18.022;2023-02-08T12:55:08;5.97;;;2.97;;
12141;SDS011;6134;59.284;18.022;2023-02-08T12:57:41;4.75;;;2.70;;
12141;SDS011;6134;59.284;18.022;2023-02-08T13:00:15;9.93;;;3.08;;
12141;SDS011;6134;59.284;18.022;2023-02-08T13:02:47;5.97;;;2.97;;
12141;SDS011;6134;59.284;18.022;2023-02-08T13:05:24;6.78;;;3.00;;
12141;SDS011;6134;59.284;18.022;2023-02-08T13:07:57;7.13;;;2.58;;
12141;SDS011;6134;59.284;18.022;2023-02-08T13:10:28;5.43;;;2.55;;
12141;SDS011;6134;59.284;18.022;2023-02-08T13:12:58;7.45;;;2.83;;
12141;SDS011;6134;59.284;18.022;2023-02-08T13:15:29;5.90;;;3.05;;
12141;SDS011;6134;59.284;18.022;2023-02-08T13:18:01;5.88;;;2.58;;
12141;SDS011;6134;59.284;18.022;2023-02-08T13:20:32;6.55;;;2.78;;
12141;SDS011;6134;59.284;18.022;2023-02-08T13:23:09;5.10;;;2.60;;
12141;SDS011;6134;59.284;18.022;2023-02-08T13:25:40;7.13;;;2.72;;
12141;SDS011;6134;59.284;18.022;2023-02-08T13:28:14;5.13;;;2.72;;
12141;SDS011;6134;59.284;18.022;2023-02-08T13:30:45;4.65;;;2.47;;
12141;SDS011;6134;59.284;18.022;2023-02-08T13:33:16;6.20;;;2.45;;
12141;SDS011;6134;59.284;18.022;2023-02-08T13:35:48;7.93;;;2.60;;
12141;SDS011;6134;59.284;18.022;2023-02-08T13:38:18;7.25;;;2.60;;
12141;SDS011;6134;59.284;18.022;2023-02-08T13:40:48;6.30;;;2.40;;
12141;SDS011;6134;59.284;18.022;2023-02-08T13:43:30;4.53;;;2.60;;
12141;SDS011;6134;59.284;18.022;2023-02-08T13:46:03;11.32;;;3.13;;
12141;SDS011;6134;59.284;18.022;2023-02-08T13:48:44;3.20;;;2.38;;
12141;SDS011;6134;59.284;18.022;2023-02-08T13:54:04;5.70;;;2.60;;
12141;SDS011;6134;59.284;18.022;2023-02-08T13:56:37;3.65;;;2.33;;
12141;SDS011;6134;59.284;18.022;2023-02-08T13:59:23;5.00;;;2.70;;
12141;SDS011;6134;59.284;18.022;2023-02-08T14:04:42;4.25;;;2.58;;
12141;SDS011;6134;59.284;18.022;2023-02-08T14:07:13;3.72;;;2.55;;
12141;SDS011;6134;59.284;18.022;2023-02-08T14:09:48;4.63;;;2.33;;
12141;SDS011;6134;59.284;18.022;2023-02-08T14:12:22;3.72;;;3.30;;
12141;SDS011;6134;59.284;18.022;2023-02-08T14:17:49;6.53;;;2.90;;
12141;SDS011;6134;59.284;18.022;2023-02-08T14:20:25;5.53;;;3.03;;
12141;SDS011;6134;59.284;18.022;2023-02-08T14:22:56;4.38;;;3.10;;
12141;SDS011;6134;59.284;18.022;2023-02-08T14:25:26;2.83;;;2.58;;
12141;SDS011;6134;59.284;18.022;2023-02-08T14:27:57;5.43;;;3.47;;
12141;SDS011;6134;59.284;18.022;2023-02-08T14:30:27;5.47;;;3.38;;
12141;SDS011;6134;59.284;18.022;2023-02-08T14:33:11;4.43;;;2.50;;
12141;SDS011;6134;59.284;18.022;2023-02-08T14:35:49;4.13;;;2.97;;
12141;SDS011;6134;59.284;18.022;2023-02-08T14:38:48;5.70;;;2.95;;
12141;SDS011;6134;59.284;18.022;2023-02-08T14:44:15;3.97;;;3.30;;
12141;SDS011;6134;59.284;18.022;2023-02-08T14:47:04;6.25;;;3.10;;
12141;SDS011;6134;59.284;18.022;2023-02-08T14:49:39;3.17;;;2.70;;
12141;SDS011;6134;59.284;18.022;2023-02-08T14:52:12;6.28;;;3.17;;
12141;SDS011;6134;59.284;18.022;2023-02-08T14:54:43;4.30;;;3.13;;
12141;SDS011;6134;59.284;18.022;2023-02-08T14:57:17;5.22;;;3.25;;
12141;SDS011;6134;59.284;18.022;2023-02-08T14:59:50;6.05;;;3.50;;
12141;SDS011;6134;59.284;18.022;2023-02-08T15:02:19;7.32;;;3.22;;
12141;SDS011;6134;59.284;18.022;2023-02-08T15:04:48;5.10;;;3.03;;
12141;SDS011;6134;59.284;18.022;2023-02-08T15:07:21;5.32;;;4.00;;
12141;SDS011;6134;59.284;18.022;2023-02-08T15:09:52;6.30;;;3.85;;
12141;SDS011;6134;59.284;18.022;2023-02-08T15:12:23;5.70;;;3.63;;
12141;SDS011;6134;59.284;18.022;2023-02-08T15:14:54;6.80;;;4.15;;
12141;SDS011;6134;59.284;18.022;2023-02-08T15:17:28;6.60;;;4.32;;
12141;SDS011;6134;59.284;18.022;2023-02-08T15:19:58;5.72;;;4.55;;
12141;SDS011;6134;59.284;18.022;2023-02-08T15:22:33;7.95;;;4.60;;
12141;SDS011;6134;59.284;18.022;2023-02-08T15:25:12;7.50;;;4.80;;
12141;SDS011;6134;59.284;18.022;2023-02-08T15:27:44;5.97;;;4.53;;
12141;SDS011;6134;59.284;18.022;2023-02-08T15:30:23;7.65;;;4.78;;